createdAt,value
2022-10-02T00:02:16.711Z,98370.25
2022-10-02T00:04:42.809Z,98361.94
2022-10-02T00:07:08.983Z,98357.88
2022-10-02T00:09:35.082Z,98360.38
2022-10-02T00:12:01.180Z,98374.56
2022-10-02T00:14:27.276Z,98369.91
2022-10-02T00:16:53.434Z,98373.00
2022-10-02T00:19:19.554Z,98362.75
2022-10-02T00:21:45.676Z,98375.50
2022-10-02T00:24:11.766Z,98370.34
2022-10-02T00:26:38.189Z,98371.75
2022-10-02T00:29:04.542Z,98373.66
2022-10-02T00:31:30.666Z,98373.66
2022-10-02T00:33:56.834Z,98379.16
2022-10-02T00:36:22.943Z,98383.63
2022-10-02T00:38:49.019Z,98393.91
2022-10-02T00:41:15.102Z,98385.75
2022-10-02T00:43:41.204Z,98392.09
2022-10-02T00:46:07.380Z,98385.41
2022-10-02T00:48:33.481Z,98387.03
2022-10-02T00:50:59.598Z,98378.88
2022-10-02T00:53:25.705Z,98385.28
2022-10-02T00:55:51.806Z,98385.28
2022-10-02T00:58:17.960Z,98387.13
2022-10-02T01:00:44.073Z,98387.78
2022-10-02T01:03:10.188Z,98386.38
2022-10-02T01:05:36.292Z,98384.53
2022-10-02T01:08:02.374Z,98393.81
2022-10-02T01:10:28.474Z,98390.16
2022-10-02T01:12:54.567Z,98396.03
2022-10-02T01:15:20.642Z,98389.31
2022-10-02T01:17:46.738Z,98397.94
2022-10-02T01:20:12.845Z,98402.25
2022-10-02T01:22:38.934Z,98394.91
2022-10-02T01:25:05.030Z,98393.91
2022-10-02T01:27:31.132Z,98390.88
2022-10-02T01:29:57.216Z,98378.00
2022-10-02T01:32:23.301Z,98394.16
2022-10-02T01:34:49.397Z,98395.63
2022-10-02T01:37:15.485Z,98390.31
2022-10-02T01:39:41.581Z,98392.78
2022-10-02T01:42:07.693Z,98391.13
2022-10-02T01:44:33.775Z,98387.09
2022-10-02T01:46:59.894Z,98387.91
2022-10-02T01:49:26.003Z,98402.66
2022-10-02T01:51:52.092Z,98410.00
2022-10-02T01:54:18.188Z,98399.84
2022-10-02T01:56:44.282Z,98395.97
2022-10-02T01:59:10.370Z,98392.75
2022-10-02T02:01:36.456Z,98401.09
2022-10-02T02:04:02.559Z,98385.44
2022-10-02T02:06:28.646Z,98388.53
2022-10-02T02:08:58.454Z,98377.25
2022-10-02T02:11:27.378Z,98376.06
2022-10-02T02:13:53.456Z,98379.97
2022-10-02T02:16:19.574Z,98386.34
2022-10-02T02:18:45.695Z,98377.16
2022-10-02T02:21:11.771Z,98379.81
2022-10-02T02:23:37.858Z,98380.25
2022-10-02T02:26:03.971Z,98381.28
2022-10-02T02:28:30.151Z,98379.63
2022-10-02T02:30:56.336Z,98381.44
2022-10-02T02:33:22.444Z,98379.81
2022-10-02T02:35:48.562Z,98374.91
2022-10-02T02:38:14.665Z,98384.38
2022-10-02T02:40:40.768Z,98387.22
2022-10-02T02:43:06.852Z,98381.69
2022-10-02T02:45:32.980Z,98374.75
2022-10-02T02:47:59.112Z,98389.50
2022-10-02T02:50:25.206Z,98382.34
2022-10-02T02:52:51.296Z,98396.47
2022-10-02T02:55:17.399Z,98390.16
2022-10-02T02:57:43.472Z,98391.16
2022-10-02T03:00:09.573Z,98387.50
2022-10-02T03:02:36.336Z,98395.09
2022-10-02T03:05:02.520Z,98397.56
2022-10-02T03:07:28.606Z,98395.38
2022-10-02T03:09:54.708Z,98395.56
2022-10-02T03:12:20.786Z,98386.47
2022-10-02T03:14:46.889Z,98393.72
2022-10-02T03:17:13.294Z,98397.19
2022-10-02T03:19:39.498Z,98386.41
2022-10-02T03:22:05.623Z,98377.38
2022-10-02T03:24:31.774Z,98387.22
2022-10-02T03:26:57.903Z,98384.72
2022-10-02T03:29:24.063Z,98396.84
2022-10-02T03:31:50.340Z,98394.16
2022-10-02T03:34:16.504Z,98385.19
2022-10-02T03:36:42.588Z,98381.13
2022-10-02T03:39:25.740Z,98392.22
2022-10-02T03:41:52.342Z,98387.47
2022-10-02T03:44:18.548Z,98385.84
2022-10-02T03:46:44.696Z,98385.44
2022-10-02T03:49:10.850Z,98384.81
2022-10-02T03:51:37.049Z,98386.47
2022-10-02T03:54:03.312Z,98395.28
2022-10-02T03:56:29.495Z,98398.38
2022-10-02T03:58:55.732Z,98386.72
2022-10-02T04:01:21.894Z,98365.53
2022-10-02T04:03:48.167Z,98382.97
2022-10-02T04:06:14.890Z,98375.22
2022-10-02T04:08:41.068Z,98371.50
2022-10-02T04:11:07.339Z,98373.78
2022-10-02T04:13:33.481Z,98372.78
2022-10-02T04:15:59.740Z,98373.16
2022-10-02T04:18:25.891Z,98374.41
2022-10-02T04:20:52.042Z,98377.06
2022-10-02T04:23:18.145Z,98381.41
2022-10-02T04:25:44.259Z,98387.53
2022-10-02T04:28:10.450Z,98380.38
2022-10-02T04:30:36.623Z,98385.69
2022-10-02T04:33:02.733Z,98381.59
2022-10-02T04:35:28.917Z,98385.44
2022-10-02T04:37:55.054Z,98384.88
2022-10-02T04:40:21.136Z,98389.75
2022-10-02T04:42:47.262Z,98387.72
2022-10-02T04:45:13.355Z,98387.72
2022-10-02T04:47:39.434Z,98394.06
2022-10-02T04:50:05.567Z,98395.72
2022-10-02T04:52:31.651Z,98390.84
2022-10-02T04:54:57.742Z,98402.22
2022-10-02T04:57:23.969Z,98398.56
2022-10-02T04:59:50.054Z,98394.72
2022-10-02T05:02:16.207Z,98405.91
2022-10-02T05:04:42.377Z,98402.88
2022-10-02T05:07:08.466Z,98413.13
2022-10-02T05:09:34.551Z,98401.03
2022-10-02T05:12:00.703Z,98390.13
2022-10-02T05:14:26.811Z,98387.84
2022-10-02T05:16:52.907Z,98405.84
2022-10-02T05:19:19.009Z,98391.72
2022-10-02T05:21:45.082Z,98395.63
2022-10-02T05:24:11.176Z,98397.03
2022-10-02T05:26:38.121Z,98382.41
2022-10-02T05:29:04.458Z,98387.91
2022-10-02T05:31:30.683Z,98406.03
2022-10-02T05:33:56.863Z,98416.19
2022-10-02T05:36:22.956Z,98425.81
2022-10-02T05:38:49.057Z,98427.84
2022-10-02T05:41:15.183Z,98430.72
2022-10-02T05:43:41.273Z,98432.91
2022-10-02T05:46:07.357Z,98429.25
2022-10-02T05:48:33.576Z,98437.56
2022-10-02T05:50:59.711Z,98438.78
2022-10-02T05:53:25.821Z,98441.00
2022-10-02T05:55:51.930Z,98428.41
2022-10-02T05:58:18.016Z,98425.47
2022-10-02T06:00:44.140Z,98434.59
2022-10-02T06:03:10.286Z,98419.06
2022-10-02T06:05:36.383Z,98414.13
2022-10-02T06:08:02.462Z,98423.09
2022-10-02T06:10:28.559Z,98422.03
2022-10-02T06:12:54.651Z,98434.50
2022-10-02T06:15:20.742Z,98436.34
2022-10-02T06:17:47.306Z,98433.47
2022-10-02T06:20:13.405Z,98429.28
2022-10-02T06:22:39.497Z,98429.34
2022-10-02T06:25:05.618Z,98449.06
2022-10-02T06:27:31.703Z,98462.56
2022-10-02T06:29:57.777Z,98461.75
2022-10-02T06:32:23.872Z,98448.16
2022-10-02T06:34:49.961Z,98468.06
2022-10-02T06:37:16.056Z,98470.47
2022-10-02T06:39:42.244Z,98469.72
2022-10-02T06:42:08.336Z,98465.59
2022-10-02T06:44:34.571Z,98469.25
2022-10-02T06:47:00.745Z,98470.16
2022-10-02T06:49:26.844Z,98472.94
2022-10-02T06:51:52.940Z,98477.97
2022-10-02T06:54:19.069Z,98492.53
2022-10-02T06:56:45.145Z,98499.53
2022-10-02T06:59:11.347Z,98494.75
2022-10-02T07:01:37.476Z,98489.41
2022-10-02T07:04:03.594Z,98487.78
2022-10-02T07:06:29.690Z,98486.72
2022-10-02T07:08:55.823Z,98478.34
2022-10-02T07:11:21.912Z,98487.41
2022-10-02T07:13:48.002Z,98496.84
2022-10-02T07:16:14.178Z,98501.91
2022-10-02T07:18:40.275Z,98504.41
2022-10-02T07:21:06.366Z,98516.94
2022-10-02T07:23:32.572Z,98511.56
2022-10-02T07:25:58.647Z,98506.97
2022-10-02T07:28:24.831Z,98501.91
2022-10-02T07:30:51.278Z,98507.25
2022-10-02T07:33:17.362Z,98502.25
2022-10-02T07:35:43.449Z,98501.31
2022-10-02T07:38:09.585Z,98494.44
2022-10-02T07:40:35.722Z,98510.69
2022-10-02T07:43:01.814Z,98511.06
2022-10-02T07:45:27.965Z,98522.38
2022-10-02T07:47:54.075Z,98531.53
2022-10-02T07:50:20.236Z,98524.28
2022-10-02T07:52:46.427Z,98541.09
2022-10-02T07:55:12.518Z,98538.03
2022-10-02T07:57:38.604Z,98545.22
2022-10-02T08:00:04.716Z,98540.59
2022-10-02T08:02:30.864Z,98544.75
2022-10-02T08:04:57.008Z,98542.44
2022-10-02T08:07:23.104Z,98531.03
2022-10-02T08:09:49.195Z,98533.31
2022-10-02T08:12:15.288Z,98528.44
2022-10-02T08:14:42.156Z,98531.16
2022-10-02T08:17:08.241Z,98530.47
2022-10-02T08:19:34.348Z,98550.69
2022-10-02T08:22:00.470Z,98546.28
2022-10-02T08:24:26.563Z,98545.34
2022-10-02T08:26:52.829Z,98543.59
2022-10-02T08:29:18.978Z,98544.47
2022-10-02T08:31:45.150Z,98542.16
2022-10-02T08:34:11.289Z,98551.91
2022-10-02T08:36:37.740Z,98549.06
2022-10-02T08:39:04.112Z,98550.06
2022-10-02T08:41:30.198Z,98554.28
2022-10-02T08:43:56.287Z,98554.88
2022-10-02T08:46:22.466Z,98554.78
2022-10-02T08:48:48.562Z,98573.47
2022-10-02T08:51:14.669Z,98558.19
2022-10-02T08:53:40.781Z,98561.09
2022-10-02T08:56:06.886Z,98568.75
2022-10-02T08:58:32.986Z,98568.41
2022-10-02T09:00:59.218Z,98557.84
2022-10-02T09:03:25.320Z,98561.53
2022-10-02T09:05:51.438Z,98567.84
2022-10-02T09:08:17.592Z,98566.31
2022-10-02T09:10:43.698Z,98566.34
2022-10-02T09:13:09.901Z,98569.22
2022-10-02T09:15:36.035Z,98565.06
2022-10-02T09:18:02.200Z,98566.81
2022-10-02T09:20:28.444Z,98569.19
2022-10-02T09:22:54.601Z,98561.63
2022-10-02T09:25:20.818Z,98563.13
2022-10-02T09:27:49.396Z,98553.13
2022-10-02T09:30:15.706Z,98568.31
2022-10-02T09:32:41.893Z,98566.47
2022-10-02T09:35:07.994Z,98574.72
2022-10-02T09:37:34.108Z,98570.66
2022-10-02T09:40:03.354Z,98577.06
2022-10-02T09:42:29.666Z,98579.47
2022-10-02T09:44:59.191Z,98588.13
2022-10-02T09:47:30.546Z,98573.19
2022-10-02T09:49:56.825Z,98582.28
2022-10-02T09:52:23.074Z,98569.88
2022-10-02T09:54:55.386Z,98573.06
2022-10-02T09:57:21.499Z,98573.06
2022-10-02T09:59:47.598Z,98571.22
2022-10-02T10:02:13.791Z,98585.84
2022-10-02T10:05:04.013Z,98578.53
2022-10-02T10:07:26.043Z,98574.97
2022-10-02T10:09:52.163Z,98595.44
2022-10-02T10:12:18.244Z,98575.19
2022-10-02T10:14:44.336Z,98580.38
2022-10-02T10:17:10.488Z,98582.03
2022-10-02T10:19:36.610Z,98587.38
2022-10-02T10:22:02.706Z,98590.22
2022-10-02T10:24:29.339Z,98588.63
2022-10-02T10:26:55.445Z,98585.88
2022-10-02T10:29:21.545Z,98600.25
2022-10-02T10:31:47.766Z,98598.56
2022-10-02T10:34:13.961Z,98593.13
2022-10-02T10:36:43.316Z,98595.06
2022-10-02T10:39:12.808Z,98592.09
2022-10-02T10:41:39.390Z,98588.94
2022-10-02T10:44:05.913Z,98590.78
2022-10-02T10:46:32.451Z,98602.66
2022-10-02T10:48:58.626Z,98605.41
2022-10-02T10:51:24.711Z,98596.25
2022-10-02T10:53:50.845Z,98603.22
2022-10-02T10:56:16.933Z,98627.59
2022-10-02T10:58:43.025Z,98616.81
2022-10-02T11:01:09.163Z,98623.22
2022-10-02T11:03:35.275Z,98638.28
2022-10-02T11:06:01.364Z,98627.19
2022-10-02T11:08:27.456Z,98626.78
2022-10-02T11:10:53.533Z,98635.53
2022-10-02T11:13:19.622Z,98636.19
2022-10-02T11:15:45.733Z,98638.47
2022-10-02T11:18:17.691Z,98647.13
2022-10-02T11:20:43.926Z,98645.84
2022-10-02T11:23:10.053Z,98647.84
2022-10-02T11:25:36.132Z,98674.13
2022-10-02T11:28:02.553Z,98665.00
2022-10-02T11:30:28.688Z,98670.94
2022-10-02T11:32:54.777Z,98666.19
2022-10-02T11:35:20.870Z,98664.00
2022-10-02T11:37:46.991Z,98649.34
2022-10-02T11:40:13.093Z,98648.91
2022-10-02T11:42:39.186Z,98656.88
2022-10-02T11:45:05.293Z,98664.34
2022-10-02T11:47:31.389Z,98677.91
2022-10-02T11:49:57.470Z,98668.94
2022-10-02T11:52:23.571Z,98663.78
2022-10-02T11:54:49.647Z,98681.25
2022-10-02T11:57:15.722Z,98676.44
2022-10-02T11:59:41.820Z,98679.28
2022-10-02T12:02:07.990Z,98671.16
2022-10-02T12:04:34.219Z,98673.72
2022-10-02T12:07:00.330Z,98673.53
2022-10-02T12:09:26.414Z,98674.88
2022-10-02T12:11:52.558Z,98678.13
2022-10-02T12:14:18.666Z,98681.31
2022-10-02T12:16:44.787Z,98668.78
2022-10-02T12:19:10.937Z,98672.38
2022-10-02T12:21:37.315Z,98673.81
2022-10-02T12:24:03.617Z,98670.31
2022-10-02T12:26:29.693Z,98671.19
2022-10-02T12:28:55.835Z,98662.16
2022-10-02T12:31:21.954Z,98675.28
2022-10-02T12:33:50.712Z,98684.31
2022-10-02T12:36:19.104Z,98694.88
2022-10-02T12:38:45.227Z,98693.00
2022-10-02T12:41:11.332Z,98695.50
2022-10-02T12:43:37.451Z,98687.66
2022-10-02T12:46:03.645Z,98690.53
2022-10-02T12:48:29.752Z,98674.28
2022-10-02T12:50:55.909Z,98686.44
2022-10-02T12:53:21.987Z,98683.47
2022-10-02T12:55:48.078Z,98684.09
2022-10-02T12:58:14.190Z,98676.84
2022-10-02T13:00:40.298Z,98677.03
2022-10-02T13:03:06.515Z,98691.16
2022-10-02T13:05:32.674Z,98694.22
2022-10-02T13:07:58.769Z,98674.81
2022-10-02T13:10:24.849Z,98682.25
2022-10-02T13:12:51.031Z,98687.53
2022-10-02T13:15:17.141Z,98687.19
2022-10-02T13:17:43.230Z,98689.63
2022-10-02T13:20:09.344Z,98704.44
2022-10-02T13:22:35.433Z,98688.88
2022-10-02T13:25:01.584Z,98686.06
2022-10-02T13:27:31.541Z,98684.25
2022-10-02T13:29:57.925Z,98676.25
2022-10-02T13:32:24.013Z,98688.75
2022-10-02T13:34:50.122Z,98677.22
2022-10-02T13:37:16.216Z,98679.09
2022-10-02T13:39:42.495Z,98667.00
2022-10-02T13:42:08.719Z,98687.72
2022-10-02T13:44:34.795Z,98690.00
2022-10-02T13:47:00.879Z,98691.81
2022-10-02T13:49:26.993Z,98673.28
2022-10-02T13:51:53.094Z,98680.75
2022-10-02T13:54:19.268Z,98692.88
2022-10-02T13:56:45.540Z,98687.75
2022-10-02T13:59:11.698Z,98692.72
2022-10-02T14:01:38.323Z,98696.81
2022-10-02T14:04:04.784Z,98699.44
2022-10-02T14:06:30.911Z,98698.84
2022-10-02T14:08:57.013Z,98695.50
2022-10-02T14:11:23.134Z,98693.66
2022-10-02T14:13:49.220Z,98689.72
2022-10-02T14:16:15.388Z,98697.13
2022-10-02T14:18:41.547Z,98718.97
2022-10-02T14:21:07.635Z,98705.81
2022-10-02T14:23:33.704Z,98711.38
2022-10-02T14:25:59.813Z,98702.59
2022-10-02T14:28:25.980Z,98712.69
2022-10-02T14:30:52.108Z,98708.41
2022-10-02T14:33:18.204Z,98707.38
2022-10-02T14:35:44.298Z,98715.59
2022-10-02T14:38:10.380Z,98716.63
2022-10-02T14:40:36.491Z,98738.19
2022-10-02T14:43:02.581Z,98732.19
2022-10-02T14:45:28.706Z,98727.56
2022-10-02T14:47:54.853Z,98721.19
2022-10-02T14:50:20.935Z,98726.72
2022-10-02T14:52:47.026Z,98736.50
2022-10-02T14:55:13.133Z,98742.34
2022-10-02T14:57:39.227Z,98755.53
2022-10-02T15:00:05.332Z,98749.72
2022-10-02T15:02:31.463Z,98761.44
2022-10-02T15:05:00.057Z,98754.41
2022-10-02T15:07:29.651Z,98754.44
2022-10-02T15:09:55.756Z,98769.56
2022-10-02T15:12:21.853Z,98760.19
2022-10-02T15:14:47.946Z,98759.16
2022-10-02T15:17:14.053Z,98759.16
2022-10-02T15:19:40.172Z,98750.78
2022-10-02T15:22:06.253Z,98757.09
2022-10-02T15:24:32.356Z,98750.34
2022-10-02T15:26:58.468Z,98766.78
2022-10-02T15:29:24.570Z,98758.44
2022-10-02T15:31:50.817Z,98755.75
2022-10-02T15:34:16.939Z,98756.94
2022-10-02T15:36:43.061Z,98761.13
2022-10-02T15:39:13.741Z,98764.25
2022-10-02T15:41:40.238Z,98756.81
2022-10-02T15:44:06.505Z,98768.66
2022-10-02T15:46:32.617Z,98765.38
2022-10-02T15:48:58.706Z,98767.22
2022-10-02T15:51:24.794Z,98768.50
2022-10-02T15:53:50.910Z,98767.84
2022-10-02T15:56:16.999Z,98774.66
2022-10-02T15:58:43.080Z,98763.44
2022-10-02T16:01:09.321Z,98759.63
2022-10-02T16:03:35.462Z,98774.75
2022-10-02T16:06:01.556Z,98780.31
2022-10-02T16:08:27.751Z,98786.56
2022-10-02T16:10:53.830Z,98793.00
2022-10-02T16:13:19.904Z,98801.88
2022-10-02T16:15:46.023Z,98798.16
2022-10-02T16:18:12.114Z,98810.31
2022-10-02T16:20:38.200Z,98804.91
2022-10-02T16:23:04.300Z,98811.53
2022-10-02T16:25:30.402Z,98813.38
2022-10-02T16:27:56.568Z,98811.06
2022-10-02T16:30:22.746Z,98812.50
2022-10-02T16:32:48.824Z,98825.09
2022-10-02T16:35:14.954Z,98826.06
2022-10-02T16:37:41.400Z,98820.34
2022-10-02T16:40:07.541Z,98830.03
2022-10-02T16:42:33.645Z,98830.03
2022-10-02T16:44:59.753Z,98832.63
2022-10-02T16:47:25.842Z,98840.06
2022-10-02T16:49:51.934Z,98844.69
2022-10-02T16:52:18.029Z,98844.34
2022-10-02T16:54:44.144Z,98859.41
2022-10-02T16:57:10.242Z,98856.22
2022-10-02T16:59:36.348Z,98868.44
2022-10-02T17:02:19.123Z,98874.22
2022-10-02T17:04:45.650Z,98872.00
2022-10-02T17:07:11.750Z,98873.19
2022-10-02T17:09:37.847Z,98882.34
2022-10-02T17:12:04.076Z,98893.66
2022-10-02T17:14:30.161Z,98895.63
2022-10-02T17:16:56.484Z,98900.53
2022-10-02T17:19:22.618Z,98906.81
2022-10-02T17:21:48.701Z,98907.91
2022-10-02T17:24:14.801Z,98909.94
2022-10-02T17:26:40.900Z,98910.50
2022-10-02T17:29:06.997Z,98923.66
2022-10-02T17:31:33.384Z,98926.13
2022-10-02T17:34:03.668Z,98932.81
2022-10-02T17:36:29.792Z,98936.69
2022-10-02T17:38:55.876Z,98939.31
2022-10-02T17:41:21.964Z,98938.38
2022-10-02T17:43:48.038Z,98949.91
2022-10-02T17:46:14.214Z,98953.94
2022-10-02T17:48:40.409Z,98945.34
2022-10-02T17:51:19.490Z,98952.34
2022-10-02T17:53:52.635Z,98956.03
2022-10-02T17:56:18.819Z,98959.03
2022-10-02T17:58:44.895Z,98968.28
2022-10-02T18:01:11.036Z,98977.50
2022-10-02T18:03:37.160Z,98973.03
2022-10-02T18:06:03.240Z,98983.75
2022-10-02T18:08:30.675Z,98983.16
2022-10-02T18:10:57.257Z,98992.31
2022-10-02T18:13:23.347Z,98993.97
2022-10-02T18:15:49.455Z,98998.34
2022-10-02T18:18:15.539Z,99005.22
2022-10-02T18:20:41.627Z,99014.38
2022-10-02T18:23:07.736Z,99008.03
2022-10-02T18:25:33.820Z,99005.44
2022-10-02T18:27:59.980Z,99013.78
2022-10-02T18:30:26.141Z,99019.25
2022-10-02T18:32:52.231Z,99016.28
2022-10-02T18:35:18.360Z,99022.78
2022-10-02T18:37:44.484Z,99016.81
2022-10-02T18:40:10.574Z,99023.13
2022-10-02T18:42:36.653Z,99033.63
2022-10-02T18:45:02.756Z,99038.28
2022-10-02T18:47:28.840Z,99040.13
2022-10-02T18:49:55.049Z,99037.31
2022-10-02T18:52:21.139Z,99044.47
2022-10-02T18:54:47.220Z,99048.63
2022-10-02T18:57:13.295Z,99058.75
2022-10-02T18:59:39.401Z,99060.28
2022-10-02T19:02:05.596Z,99060.63
2022-10-02T19:04:31.750Z,99061.28
2022-10-02T19:06:57.872Z,99057.47
2022-10-02T19:09:23.949Z,99058.81
2022-10-02T19:11:50.063Z,99057.84
2022-10-02T19:14:16.190Z,99065.28
2022-10-02T19:16:42.337Z,99069.97
2022-10-02T19:19:08.551Z,99077.47
2022-10-02T19:21:34.839Z,99080.97
2022-10-02T19:24:01.057Z,99081.13
2022-10-02T19:26:27.229Z,99090.94
2022-10-02T19:28:53.452Z,99090.59
2022-10-02T19:31:19.588Z,99094.41
2022-10-02T19:33:45.685Z,99100.41
2022-10-02T19:36:11.814Z,99108.22
2022-10-02T19:38:37.905Z,99101.25
2022-10-02T19:41:03.993Z,99102.25
2022-10-02T19:43:30.109Z,99113.22
2022-10-02T19:45:56.248Z,99116.22
2022-10-02T19:48:22.407Z,99118.03
2022-10-02T19:50:48.519Z,99122.84
2022-10-02T19:53:14.636Z,99121.19
2022-10-02T19:55:40.724Z,99125.69
2022-10-02T19:58:06.816Z,99126.66
2022-10-02T20:00:36.542Z,99130.16
2022-10-02T20:03:04.561Z,99134.31
2022-10-02T20:05:30.687Z,99140.47
2022-10-02T20:07:57.121Z,99137.16
2022-10-02T20:10:23.246Z,99141.81
2022-10-02T20:12:49.475Z,99139.47
2022-10-02T20:15:15.598Z,99140.47
2022-10-02T20:17:41.780Z,99144.78
2022-10-02T20:20:07.928Z,99145.47
2022-10-02T20:22:34.035Z,99152.41
2022-10-02T20:25:00.137Z,99156.09
2022-10-02T20:27:26.262Z,99162.41
2022-10-02T20:29:52.349Z,99157.41
2022-10-02T20:32:18.431Z,99159.25
2022-10-02T20:34:44.575Z,99165.72
2022-10-02T20:37:10.671Z,99172.38
2022-10-02T20:39:36.774Z,99168.56
2022-10-02T20:42:03.282Z,99169.06
2022-10-02T20:44:29.422Z,99177.84
2022-10-02T20:46:55.711Z,99183.31
2022-10-02T20:49:21.857Z,99186.19
2022-10-02T20:51:52.326Z,99186.00
2022-10-02T20:54:18.832Z,99192.47
2022-10-02T20:56:44.963Z,99197.28
2022-10-02T20:59:11.054Z,99206.28
2022-10-02T21:01:37.405Z,99201.31
2022-10-02T21:06:30.831Z,99206.94
2022-10-02T21:08:56.925Z,99207.25
2022-10-02T21:11:23.022Z,99209.09
2022-10-02T21:13:49.109Z,99214.22
2022-10-02T21:16:15.266Z,99213.06
2022-10-02T21:18:41.591Z,99222.50
2022-10-02T21:21:07.814Z,99225.69
2022-10-02T21:23:33.973Z,99225.00
2022-10-02T21:26:00.094Z,99229.66
2022-10-02T21:28:26.286Z,99226.78
2022-10-02T21:30:52.583Z,99229.59
2022-10-02T21:33:18.696Z,99234.41
2022-10-02T21:35:44.936Z,99236.41
2022-10-02T21:38:11.307Z,99243.06
2022-10-02T21:40:37.555Z,99235.84
2022-10-02T21:43:03.694Z,99236.66
2022-10-02T21:45:29.837Z,99239.31
2022-10-02T21:47:56.093Z,99245.28
2022-10-02T21:50:22.194Z,99244.81
2022-10-02T21:52:48.309Z,99246.72
2022-10-02T21:55:14.412Z,99257.78
2022-10-02T21:57:40.561Z,99251.47
2022-10-02T22:00:06.757Z,99249.47
2022-10-02T22:02:32.864Z,99256.78
2022-10-02T22:04:59.073Z,99253.38
2022-10-02T22:07:25.176Z,99259.53
2022-10-02T22:09:51.301Z,99265.00
2022-10-02T22:12:17.399Z,99255.06
2022-10-02T22:14:43.497Z,99269.50
2022-10-02T22:17:09.825Z,99270.66
2022-10-02T22:19:36.044Z,99268.13
2022-10-02T22:22:02.144Z,99274.06
2022-10-02T22:24:28.290Z,99276.81
2022-10-02T22:26:54.628Z,99277.16
2022-10-02T22:29:20.747Z,99288.56
2022-10-02T22:31:46.859Z,99285.69
2022-10-02T22:34:13.044Z,99295.72
2022-10-02T22:36:39.152Z,99292.00
2022-10-02T22:39:05.302Z,99290.19
2022-10-02T22:41:31.377Z,99301.63
2022-10-02T22:43:57.521Z,99301.94
2022-10-02T22:46:23.713Z,99298.59
2022-10-02T22:48:49.847Z,99298.41
2022-10-02T22:51:15.939Z,99309.16
2022-10-02T22:53:42.063Z,99307.78
2022-10-02T22:56:08.187Z,99312.13
2022-10-02T22:58:34.280Z,99307.50
2022-10-02T23:01:00.418Z,99307.50
2022-10-02T23:03:26.504Z,99313.63
2022-10-02T23:05:52.943Z,99310.16
2022-10-02T23:08:19.165Z,99306.34
2022-10-02T23:10:45.274Z,99299.38
2022-10-02T23:13:11.367Z,99307.94
2022-10-02T23:15:37.529Z,99307.03
2022-10-02T23:18:03.652Z,99304.25
2022-10-02T23:20:29.754Z,99314.00
2022-10-02T23:22:56.178Z,99308.31
2022-10-02T23:25:22.283Z,99309.44
2022-10-02T23:27:48.429Z,99311.41
2022-10-02T23:30:14.549Z,99313.63
2022-10-02T23:32:40.632Z,99315.31
2022-10-02T23:35:06.739Z,99315.31
2022-10-02T23:37:32.845Z,99313.09
2022-10-02T23:39:58.939Z,99312.41
2022-10-02T23:42:25.019Z,99308.69
2022-10-02T23:44:51.213Z,99312.88
2022-10-02T23:47:17.313Z,99315.66
2022-10-02T23:49:43.427Z,99318.63
2022-10-02T23:52:09.535Z,99317.94
2022-10-02T23:54:35.629Z,99326.06
2022-10-02T23:57:01.722Z,99316.03
2022-10-02T23:59:27.866Z,99310.44
